Kenedy, Texas
Current Conditions -  °F | °C
As of 2:35 PM on Monday 22 Dec 2014 (Local Time) from KBEA Reporting Station
Clear Clear  
Wind Chill: 72°   Ceiling: Unl
Heat Index: 72°   Visibility: 10mi
Dew Point: 60°   Wind: 6mph
Humidity: 66%   Direction: 170°S
Pressure: 29.66"   Gusts: NA
Location:  28.82°N, 97.85°W
Report Text: KBEA 222035Z AUTO 17005KT 10SM CLR 22/16 A2966 RMK AO2 T02220155
Loading
Personal Weather Stations






























Interactive Weather Map New forecast layout! Learn more

10-Day Weather Forecast

Advertisements
Track Severe Weather on mobile